Time;durP1;ratioP1;P1;durP2;ratioP2;P2;SDS_P1;SDS_P2;PMS_P1;PMS_P2;Temp;Humidity;BMP_temperature;BMP_pressure;BME280_temperature;BME280_humidity;BME280_pressure;Samples;Min_cycle;Max_cycle;Signal;HPM_P1;HPM_P2
2023/02/07 07:38:11;;;;;;;22.57;13.27;;;-5.50;99.90;;;;;;5133161;27;20279;-77
2023/02/07 07:49:37;;;;;;;28.27;14.83;;;-5.10;99.90;;;;;;5133168;27;20269;-78
2023/02/07 07:52:03;;;;;;;26.50;14.73;;;-5.10;99.90;;;;;;5113716;28;20423;-77
2023/02/07 07:54:29;;;;;;;25.50;15.37;;;-5.10;99.90;;;;;;5128403;28;20222;-77
2023/02/07 07:56:54;;;;;;;27.17;16.17;;;-5.10;99.90;;;;;;5132646;27;20176;-78
2023/02/07 07:59:20;;;;;;;24.40;13.53;;;-5.20;99.90;;;;;;5130862;28;20416;-78
2023/02/07 08:01:46;;;;;;;24.40;15.47;;;-5.10;99.90;;;;;;5131948;27;20186;-77
2023/02/07 08:04:12;;;;;;;22.77;13.93;;;-5.10;99.90;;;;;;5130657;28;20199;-78
2023/02/07 08:06:37;;;;;;;24.63;14.83;;;-4.90;99.90;;;;;;5130749;28;20668;-78
2023/02/07 08:09:03;;;;;;;25.63;16.57;;;-4.90;99.90;;;;;;5130558;28;20662;-78
2023/02/07 08:11:29;;;;;;;25.70;15.17;;;-4.70;99.90;;;;;;5132054;27;20195;-78
2023/02/07 08:13:54;;;;;;;23.20;16.00;;;-4.20;99.90;;;;;;5131747;27;20646;-78
2023/02/07 08:16:20;;;;;;;22.87;14.63;;;-4.20;99.90;;;;;;5130691;28;20192;-78
2023/02/07 08:18:46;;;;;;;25.17;14.77;;;-3.40;99.90;;;;;;5132163;27;20173;-78
2023/02/07 08:21:11;;;;;;;23.70;14.17;;;-3.30;99.90;;;;;;5131017;28;20184;-78
2023/02/07 08:23:37;;;;;;;21.33;13.80;;;-2.90;99.90;;;;;;5131523;28;20264;-78
2023/02/07 08:26:03;;;;;;;18.60;12.53;;;-2.20;99.90;;;;;;5133890;27;20251;-79
2023/02/07 08:28:29;;;;;;;21.40;12.90;;;-1.40;99.90;;;;;;5133412;27;20548;-79
2023/02/07 08:31:03;;;;;;;16.77;12.53;;;-0.70;99.90;;;;;;5135811;28;20178;-79
2023/02/07 08:33:29;;;;;;;16.60;12.43;;;0.20;99.90;;;;;;5141659;27;20420;-80
2023/02/07 08:35:55;;;;;;;19.20;13.17;;;0.30;99.90;;;;;;5138855;28;20430;-80
2023/02/07 08:38:21;;;;;;;16.37;13.07;;;0.60;99.90;;;;;;5139168;27;20182;-79
2023/02/07 08:40:46;;;;;;;17.27;13.53;;;0.80;99.90;;;;;;5137209;28;20182;-81
2023/02/07 08:43:13;;;;;;;15.20;11.50;;;1.10;99.90;;;;;;5138503;27;20195;-80
2023/02/07 08:45:40;;;;;;;17.77;13.23;;;1.10;99.90;;;;;;5137777;28;20179;-81
2023/02/07 08:48:06;;;;;;;17.03;12.30;;;1.30;99.90;;;;;;5138664;27;20532;-80
2023/02/07 08:50:32;;;;;;;17.93;12.00;;;1.40;99.90;;;;;;5137767;27;20409;-80
2023/02/07 08:52:58;;;;;;;13.10;10.17;;;1.20;99.90;;;;;;5140161;27;20214;-79
2023/02/07 08:55:23;;;;;;;14.53;10.67;;;1.40;99.90;;;;;;5140363;27;20650;-79
2023/02/07 08:57:49;;;;;;;15.07;11.03;;;1.50;99.90;;;;;;5139489;28;20181;-79
2023/02/07 09:00:15;;;;;;;13.97;11.73;;;1.30;99.90;;;;;;5128491;27;20273;-79
2023/02/07 09:02:42;;;;;;;14.90;11.23;;;1.30;99.90;;;;;;5122881;28;20722;-79
2023/02/07 09:05:08;;;;;;;15.27;11.43;;;1.40;99.90;;;;;;5122902;28;20215;-79
2023/02/07 09:07:34;;;;;;;15.43;11.63;;;1.60;99.90;;;;;;5124622;28;20242;-79
2023/02/07 09:09:59;;;;;;;12.23;10.93;;;1.50;99.90;;;;;;5124636;28;20165;-80
2023/02/07 09:12:25;;;;;;;12.27;10.97;;;1.00;99.90;;;;;;5124203;28;20193;-79
2023/02/07 09:14:51;;;;;;;12.97;11.20;;;0.90;99.90;;;;;;5124012;28;20172;-79
2023/02/07 09:17:16;;;;;;;12.80;10.77;;;1.20;99.90;;;;;;5122169;28;20185;-80
2023/02/07 09:19:42;;;;;;;14.63;10.40;;;1.50;99.90;;;;;;5122907;28;20183;-79
2023/02/07 09:22:08;;;;;;;14.40;11.27;;;1.30;99.90;;;;;;5123518;28;20171;-79
2023/02/07 09:24:33;;;;;;;14.57;11.27;;;0.90;99.90;;;;;;5124208;28;20667;-79
2023/02/07 09:27:00;;;;;;;13.40;11.43;;;0.60;99.90;;;;;;5122789;28;20524;-79
2023/02/07 09:29:26;;;;;;;13.23;11.03;;;0.20;99.90;;;;;;5123037;28;20212;-79
2023/02/07 09:31:51;;;;;;;15.03;11.27;;;0.00;99.90;;;;;;5122383;28;20177;-79
2023/02/07 09:34:18;;;;;;;12.10;10.67;;;-0.10;99.90;;;;;;5123737;28;20200;-79
2023/02/07 09:36:44;;;;;;;13.47;10.80;;;-0.40;99.90;;;;;;5123967;28;20181;-79
2023/02/07 09:39:10;;;;;;;15.07;10.77;;;-0.60;99.90;;;;;;5121712;28;20185;-79
2023/02/07 09:41:41;;;;;;;12.10;9.97;;;-0.80;99.90;;;;;;5123586;28;20229;-79
2023/02/07 09:44:35;;;;;;;11.90;10.60;;;-0.70;99.90;;;;;;5123307;28;20618;-79
2023/02/07 09:47:14;;;;;;;16.13;10.43;;;-0.40;99.90;;;;;;5115147;28;20210;-80
2023/02/07 09:49:46;;;;;;;13.30;10.30;;;-0.20;99.90;;;;;;5122650;28;20179;-80
2023/02/07 09:52:20;;;;;;;11.33;9.23;;;0.10;99.90;;;;;;5123109;28;20425;-80
2023/02/07 09:54:54;;;;;;;12.60;9.50;;;0.80;99.90;;;;;;5123222;28;20172;-79
2023/02/07 09:57:36;;;;;;;12.87;10.03;;;0.50;99.90;;;;;;5122337;28;20166;-79
2023/02/07 10:00:30;;;;;;;13.47;9.83;;;0.60;99.90;;;;;;5120643;28;20224;-79
2023/02/07 10:03:20;;;;;;;13.53;10.47;;;0.80;99.90;;;;;;5114870;28;20201;-79
2023/02/07 10:06:11;;;;;;;10.57;9.37;;;0.60;99.90;;;;;;5122102;28;20165;-79
2023/02/07 10:08:37;;;;;;;13.70;9.70;;;0.50;99.90;;;;;;5121881;28;20217;-79
2023/02/07 10:11:12;;;;;;;12.23;10.03;;;1.20;99.90;;;;;;5122841;28;20202;-80
2023/02/07 10:14:06;;;;;;;15.47;9.87;;;1.50;99.90;;;;;;5124055;28;20200;-79
2023/02/07 10:16:45;;;;;;;12.50;9.13;;;1.10;99.90;;;;;;5104133;28;20581;-79
2023/02/07 10:19:31;;;;;;;14.53;10.20;;;0.50;99.90;;;;;;5123395;28;20176;-80
2023/02/07 10:22:14;;;;;;;12.63;9.83;;;0.30;99.90;;;;;;5121103;28;20180;-79
2023/02/07 10:25:17;;;;;;;10.63;9.10;;;0.30;99.90;;;;;;5121103;28;20196;-79
2023/02/07 10:27:50;;;;;;;10.70;9.33;;;0.10;99.90;;;;;;5121345;28;20212;-79
2023/02/07 10:30:38;;;;;;;17.00;10.60;;;0.30;99.90;;;;;;5123443;28;20165;-79
2023/02/07 10:33:14;;;;;;;16.00;9.00;;;1.10;99.90;;;;;;5122484;28;20193;-80
2023/02/07 10:35:41;;;;;;;13.43;9.00;;;1.80;99.90;;;;;;5121324;28;20196;-80
2023/02/07 10:38:29;;;;;;;13.73;9.53;;;1.80;99.90;;;;;;5121091;28;20177;-80
2023/02/07 10:41:18;;;;;;;10.23;8.37;;;1.70;99.90;;;;;;5123742;28;20170;-80
2023/02/07 10:43:46;;;;;;;10.50;8.73;;;1.70;99.90;;;;;;5123467;28;20259;-80
2023/02/07 10:46:14;;;;;;;10.47;8.57;;;1.10;99.90;;;;;;5124767;28;20589;-80
2023/02/07 10:48:41;;;;;;;11.40;9.10;;;0.80;99.90;;;;;;5122161;28;20212;-80
2023/02/07 10:51:33;;;;;;;14.47;9.57;;;1.40;99.90;;;;;;5124199;28;20177;-80
2023/02/07 10:54:06;;;;;;;10.37;8.17;;;1.50;99.90;;;;;;5123223;28;20690;-80
2023/02/07 10:56:36;;;;;;;11.47;9.17;;;2.30;99.90;;;;;;5123267;28;20181;-80
2023/02/07 10:59:02;;;;;;;13.50;8.67;;;3.00;99.90;;;;;;5121942;28;20177;-80
2023/02/07 11:01:31;;;;;;;9.97;8.00;;;3.30;99.90;;;;;;5122689;28;20171;-80
2023/02/07 11:03:57;;;;;;;10.70;8.77;;;3.40;99.90;;;;;;5122120;28;20194;-80
2023/02/07 11:06:33;;;;;;;10.13;8.83;;;3.50;99.90;;;;;;5121265;28;20183;-80
2023/02/07 11:09:22;;;;;;;10.83;8.67;;;3.50;99.90;;;;;;5123332;28;20202;-80
2023/02/07 11:11:52;;;;;;;11.47;8.60;;;3.40;99.90;;;;;;5122131;28;20155;-80
2023/02/07 11:14:25;;;;;;;9.93;8.93;;;3.90;99.90;;;;;;5121528;28;20191;-80
2023/02/07 11:16:55;;;;;;;9.73;8.77;;;4.10;99.90;;;;;;5122421;28;20175;-81
2023/02/07 11:19:25;;;;;;;9.93;8.67;;;4.10;99.90;;;;;;5123210;28;20239;-80
2023/02/07 11:22:06;;;;;;;10.10;8.10;;;4.20;99.90;;;;;;5122049;28;20581;-80
2023/02/07 11:24:35;;;;;;;9.43;8.47;;;4.40;99.90;;;;;;5120010;28;20245;-80
2023/02/07 11:27:03;;;;;;;10.47;7.80;;;4.10;99.90;;;;;;5121683;28;20183;-80
2023/02/07 11:29:32;;;;;;;8.73;7.83;;;4.20;99.90;;;;;;5121080;28;20199;-80
2023/02/07 11:32:00;;;;;;;10.40;8.53;;;4.20;99.90;;;;;;5120654;28;20171;-80
2023/02/07 11:34:41;;;;;;;8.70;7.80;;;4.30;99.90;;;;;;5119373;28;20214;-80
2023/02/07 11:37:15;;;;;;;13.67;10.77;;;4.60;99.90;;;;;;5120380;28;20171;-80
2023/02/07 11:39:43;;;;;;;10.07;8.73;;;5.00;99.90;;;;;;5120898;28;20170;-80
2023/02/07 11:42:16;;;;;;;8.00;7.20;;;5.10;99.90;;;;;;5121129;28;20172;-81
2023/02/07 11:44:43;;;;;;;9.30;7.83;;;5.00;99.90;;;;;;5120225;28;20241;-80
2023/02/07 11:47:15;;;;;;;8.80;7.90;;;5.10;99.90;;;;;;5122317;28;20172;-78
2023/02/07 11:49:44;;;;;;;9.57;7.80;;;5.40;99.90;;;;;;5123255;28;20186;-78
2023/02/07 11:52:10;;;;;;;8.73;7.80;;;5.90;99.90;;;;;;5123634;28;20558;-78
2023/02/07 11:54:39;;;;;;;10.10;8.07;;;5.80;99.90;;;;;;5122001;28;20243;-79
2023/02/07 11:57:10;;;;;;;10.10;8.50;;;6.10;99.90;;;;;;5123258;28;20573;-78
2023/02/07 12:00:07;;;;;;;9.67;8.20;;;5.60;99.90;;;;;;5120607;28;20221;-78
2023/02/07 12:02:34;;;;;;;12.80;8.47;;;5.40;99.90;;;;;;5121364;28;20179;-78
2023/02/07 12:05:19;;;;;;;10.40;9.27;;;5.10;99.90;;;;;;5121483;28;20183;-78
2023/02/07 12:07:52;;;;;;;10.87;9.73;;;5.60;99.90;;;;;;5122371;28;20211;-79
2023/02/07 12:10:25;;;;;;;9.23;8.33;;;6.00;99.90;;;;;;5120752;28;20167;-79
2023/02/07 12:13:10;;;;;;;8.80;7.80;;;6.10;99.90;;;;;;5121808;28;20209;-79
2023/02/07 12:15:37;;;;;;;9.47;8.20;;;6.00;99.90;;;;;;5122355;28;20151;-79
2023/02/07 12:18:23;;;;;;;9.60;8.50;;;6.20;99.70;;;;;;5122182;28;20182;-79
2023/02/07 12:21:20;;;;;;;9.13;8.20;;;6.00;99.40;;;;;;5121754;28;20201;-79
2023/02/07 12:23:55;;;;;;;9.23;7.93;;;6.20;99.90;;;;;;5120947;28;20555;-79
2023/02/07 12:26:38;;;;;;;9.57;8.17;;;6.70;98.90;;;;;;5121329;28;20627;-78
2023/02/07 12:29:19;;;;;;;9.50;7.80;;;6.90;97.50;;;;;;5119724;28;20244;-78
2023/02/07 12:32:23;;;;;;;9.03;7.97;;;7.10;97.40;;;;;;5119667;28;20175;-79
2023/02/07 12:35:04;;;;;;;8.80;7.90;;;7.10;96.40;;;;;;5121437;28;20156;-79
2023/02/07 12:37:30;;;;;;;8.80;7.60;;;7.30;95.20;;;;;;5123099;28;20168;-79
2023/02/07 12:40:27;;;;;;;9.83;7.53;;;7.20;94.80;;;;;;5124948;28;20655;-78
2023/02/07 12:43:12;;;;;;;9.83;8.00;;;6.40;95.90;;;;;;5122269;28;20199;-78
2023/02/07 12:46:11;;;;;;;8.73;7.93;;;6.50;95.20;;;;;;5123283;28;20163;-78
2023/02/07 12:48:54;;;;;;;12.07;8.07;;;6.90;94.30;;;;;;5123691;28;20218;-79
2023/02/07 12:51:37;;;;;;;10.20;8.43;;;6.80;94.30;;;;;;5125637;28;20155;-79
2023/02/07 12:54:29;;;;;;;9.07;7.47;;;7.50;94.60;;;;;;5124662;28;20278;-79
2023/02/07 12:57:16;;;;;;;10.10;8.13;;;8.10;92.80;;;;;;5101199;28;20187;-79
2023/02/07 13:00:18;;;;;;;8.30;7.10;;;8.30;91.60;;;;;;5126888;28;20164;-78
2023/02/07 13:03:09;;;;;;;8.53;6.93;;;8.30;91.00;;;;;;5124260;28;20191;-78
2023/02/07 13:05:47;;;;;;;7.83;6.90;;;8.40;89.30;;;;;;5121512;28;20175;-78
2023/02/07 13:08:32;;;;;;;8.47;7.20;;;8.50;87.60;;;;;;5121877;28;20209;-77
2023/02/07 13:11:26;;;;;;;7.63;6.83;;;8.80;88.50;;;;;;5120415;28;20225;-78
2023/02/07 13:14:29;;;;;;;8.63;7.57;;;8.80;85.60;;;;;;5121214;28;20188;-78
2023/02/07 13:17:14;;;;;;;7.70;6.90;;;8.80;85.20;;;;;;5120337;28;20164;-78
2023/02/07 13:20:10;;;;;;;8.00;7.20;;;8.40;85.20;;;;;;5117920;28;20196;-78
2023/02/07 13:22:49;;;;;;;8.60;7.70;;;8.60;85.70;;;;;;5113230;28;20191;-77
2023/02/07 13:25:31;;;;;;;9.93;7.67;;;8.50;85.50;;;;;;5119278;28;20160;-78
2023/02/07 13:27:59;;;;;;;8.13;6.97;;;8.50;83.20;;;;;;5119674;28;20225;-78
2023/02/07 13:30:28;;;;;;;8.07;7.27;;;8.70;84.00;;;;;;5120229;28;20175;-78
2023/02/07 13:33:01;;;;;;;8.60;7.30;;;9.00;82.30;;;;;;5119779;28;20187;-78
2023/02/07 13:35:31;;;;;;;6.83;6.23;;;8.70;80.50;;;;;;5118709;28;20483;-78
2023/02/07 13:38:18;;;;;;;10.83;7.87;;;8.20;82.00;;;;;;5117118;28;20239;-78
2023/02/07 13:41:05;;;;;;;7.83;6.90;;;8.50;82.90;;;;;;5118489;28;20164;-78
2023/02/07 13:44:21;;;;;;;9.47;6.80;;;9.00;81.60;;;;;;5118498;27;20195;-78
2023/02/07 13:47:01;;;;;;;7.37;6.67;;;8.70;80.60;;;;;;5095171;28;20325;-78
2023/02/07 13:50:06;;;;;;;8.50;7.30;;;6.90;83.60;;;;;;5118259;28;20559;-78
2023/02/07 13:52:49;;;;;;;7.80;6.70;;;4.60;90.90;;;;;;5085634;28;20175;-78
2023/02/07 13:55:38;;;;;;;7.73;6.93;;;3.40;95.50;;;;;;5116777;28;20554;-78
2023/02/07 14:01:19;;;;;;;7.83;6.40;;;4.20;96.90;;;;;;5116483;28;20182;-78
2023/02/07 14:04:07;;;;;;;8.23;7.00;;;4.30;95.70;;;;;;5114794;28;20205;-78
2023/02/07 14:06:43;;;;;;;9.37;7.27;;;3.60;96.80;;;;;;5116133;28;20201;-78
2023/02/07 14:09:21;;;;;;;8.53;6.60;;;3.10;99.00;;;;;;5114642;28;20205;-78
2023/02/07 14:12:18;;;;;;;8.90;7.50;;;2.80;99.90;;;;;;5115605;28;20232;-77
2023/02/07 14:14:44;;;;;;;8.67;6.87;;;2.20;99.90;;;;;;5104158;28;20608;-78
2023/02/07 14:17:34;;;;;;;10.47;7.90;;;2.10;99.90;;;;;;5115653;28;20167;-77
2023/02/07 14:20:02;;;;;;;9.43;7.67;;;1.90;99.90;;;;;;5115939;28;20175;-77
2023/02/07 14:22:40;;;;;;;12.20;7.57;;;1.40;99.90;;;;;;5113770;28;20167;-77
2023/02/07 14:25:06;;;;;;;9.83;7.47;;;1.30;99.90;;;;;;5113727;28;20171;-77
2023/02/07 14:27:38;;;;;;;8.53;7.40;;;1.30;99.90;;;;;;5115005;28;20459;-77
2023/02/07 14:30:10;;;;;;;9.00;7.57;;;1.20;99.90;;;;;;5113778;28;20700;-77
2023/02/07 14:32:41;;;;;;;9.40;7.70;;;1.10;99.90;;;;;;5114850;28;20648;-77
2023/02/07 14:35:15;;;;;;;10.50;7.33;;;1.20;99.90;;;;;;5115314;28;20781;-79
2023/02/07 14:38:01;;;;;;;10.30;8.17;;;1.30;99.90;;;;;;5116931;28;20175;-78
2023/02/07 14:40:34;;;;;;;10.83;7.67;;;1.30;99.90;;;;;;5118655;28;20859;-78
2023/02/07 14:43:14;;;;;;;12.17;8.33;;;1.20;99.90;;;;;;5115443;28;20445;-78
2023/02/07 14:45:56;;;;;;;13.90;8.40;;;1.20;99.90;;;;;;5115659;28;20393;-78
2023/02/07 14:48:56;;;;;;;11.10;8.00;;;1.20;99.90;;;;;;5115574;28;20513;-78
2023/02/07 14:51:27;;;;;;;15.17;8.93;;;1.10;99.90;;;;;;5113445;28;20423;-78
2023/02/07 14:54:21;;;;;;;12.10;8.93;;;1.00;99.90;;;;;;5116222;28;20831;-78
2023/02/07 14:57:23;;;;;;;13.00;9.87;;;1.00;99.90;;;;;;5116383;27;20385;-78
2023/02/07 15:00:03;;;;;;;15.97;9.57;;;1.00;99.90;;;;;;5116268;28;20409;-78
2023/02/07 15:02:39;;;;;;;10.73;9.17;;;1.00;99.90;;;;;;5116540;28;20408;-78
2023/02/07 15:05:27;;;;;;;12.60;9.30;;;1.00;99.90;;;;;;5115309;28;20956;-78
2023/02/07 15:08:16;;;;;;;12.07;9.17;;;1.00;99.90;;;;;;5115256;28;20505;-78
2023/02/07 15:10:52;;;;;;;12.67;9.60;;;0.90;99.90;;;;;;5114861;28;20501;-78
2023/02/07 15:13:40;;;;;;;13.87;9.37;;;0.90;99.90;;;;;;5115630;28;20421;-78
2023/02/07 15:16:13;;;;;;;11.93;8.87;;;0.70;99.90;;;;;;5104824;28;20417;-78
2023/02/07 15:18:45;;;;;;;15.93;10.43;;;0.70;99.90;;;;;;5116024;28;20393;-78
2023/02/07 15:21:21;;;;;;;47.70;36.07;;;0.50;99.90;;;;;;5115810;28;20863;-78
2023/02/07 15:24:03;;;;;;;17.43;10.87;;;0.50;99.90;;;;;;5114637;28;20459;-78
2023/02/07 15:26:30;;;;;;;18.70;12.73;;;0.40;99.90;;;;;;5116375;28;20413;-78
2023/02/07 15:28:58;;;;;;;20.63;13.13;;;0.40;99.90;;;;;;5115840;28;20484;-78
2023/02/07 15:31:24;;;;;;;23.77;12.23;;;0.40;99.90;;;;;;5114873;28;20922;-78
2023/02/07 15:33:54;;;;;;;14.20;9.67;;;0.40;99.90;;;;;;5120925;28;20429;-79
2023/02/07 15:36:29;;;;;;;17.33;9.87;;;0.30;99.90;;;;;;5123025;28;20240;-79
2023/02/07 15:38:55;;;;;;;13.53;9.97;;;0.30;99.90;;;;;;5123709;28;20849;-79
2023/02/07 15:41:21;;;;;;;13.40;9.17;;;0.20;99.90;;;;;;5124787;28;20410;-79
2023/02/07 15:44:03;;;;;;;13.33;8.57;;;0.10;99.90;;;;;;5124129;28;20771;-78
2023/02/07 15:47:01;;;;;;;15.30;9.87;;;0.10;99.90;;;;;;5124481;28;20563;-79
2023/02/07 15:49:32;;;;;;;14.00;9.60;;;0.20;99.90;;;;;;5123087;28;20491;-78
2023/02/07 15:52:14;;;;;;;14.37;8.77;;;0.20;99.90;;;;;;5120637;28;20421;-78
2023/02/07 15:54:46;;;;;;;21.33;14.23;;;0.20;99.90;;;;;;5121732;28;20782;-78
2023/02/07 15:57:18;;;;;;;19.03;9.90;;;;;;;;;;5120457;28;20502;-78
